ブエノスアイレス/エセイサ の空港の天気 - METARとTAF

エセイサ国際空港 ( SAEZ / EZE ) - アルゼンチン ブエノスアイレス州、Ezeiza
飛行場実況気象(Metar)
観測時間02/20 22:00 ART (02/21 01:00 UTC)
風向・風速北 3m/s
視程10km以上
天気現象
なし
気温28℃
湿度58%
気圧1007hPa
METARSAEZ 210100Z 01005KT CAVOK 28/19 Q1007 NOSIG
過去の天気等 Google飛行場航空写真 Wunderground天気予報

過去48時間のMETAR

飛行場予報(TAF)
発表時間: 2/20 20:00 ART (2/20 23:00 UTC)
予報対象時間: 20日21時 ART ~ 21日21時 ART
風向・風速北北西 6m/s
視程10km以上
なし
21日7時 ART ~ 21日9時 ART に徐々に
全天の4割程度の雲 雲底高度 1220m
全天の8割程度の雲 雲底高度 6100m
21日13時 ART ~ 21日15時 ART に徐々に
少しの雲 雲底高度 1220m
少しの塔状積雲 雲底高度 1370m
全天の4割程度の雲 雲底高度 6100m
21日19時 ART ~ 21日21時 ART に徐々に
視程10km以上
なし
TAF SAEZ 202300Z 2100/2124 34012KT CAVOK TX36/2118Z TN24/2110Z
BECMG 2110/2112 SCT040 BKN200
BECMG 2116/2118 FEW040 FEW045TCU SCT200
BECMG 2122/2124 CAVOK